Pagrindinis puslapis
METAR-TAF:

METAR-TAF

Oro uostai :

Urfa, Turkija

platuma: 37-27N, ilguma: 38-54E, Aukštis: 823 m

Dabartinis oras

Ataskaita buvo paskelbta 32 minutes, ne 06:50 UTC
Vėjas 5 kt nuo kintamojo kryptimis
Temperatūra 29°C
Drėgmė 16%
Slėgis 1016 hPa
Matomumas 10 km arba daugiau
nėra debesų žemiau 1500 m ir nėra kamuolinių lietaus debesų

METAR: LTCS 140650Z VRB05KT CAVOK 29/01 Q1016 RMK RWY22 32005KT 270V020 SKC

Laikas: 10:22 (07:22 UTC)

Prognozė

Ataskaita buvo paskelbta 2 valandos ir 42 minutes, ne 04:40 UTC
Prognozė galioja nuo 14 metu 06 UTC su 15 metu 06 UTC
Vėjas 2 kt nuo kintamojo kryptimis
Matomumas 10 km arba daugiau
nėra debesų žemiau 1500 m ir nėra kamuolinių lietaus debesų
Tapsmas
nuo 14 metu 08 UTC su 14 metu 10 UTC
Vėjas 12 kt iš Pietvakarių
Tapsmas
nuo 14 metu 22 UTC su 14 metu 24 UTC
Vėjas 2 kt nuo kintamojo kryptimis

TAF: LTCS 140440Z 1406/1506 VRB02KT CAVOK BECMG 1408/1410 23012KT BECMG 1422/1424 VRB02KT

Orai ataskaitas ir orų prognozės (METAR, TAF).

turimą stotys yra geltonos ir raudonos taškus žemėlapyje.

Perkelti pele per norėdami pamatyti stoties vardą.

Tada spustelėkite, norėdami matyti oro stebėjimo ir prognozės.

Norėdami pakeisti žemėlapį: spustelėkite ant žalios mygtukų su juodo kryžiaus žemyn,; žalią mygtuką su brūkšneliu, jei norite nutolinti; arba žalių rodyklių gretimoms žemėlapius.


METAR-TAF: